createdAt,value
2017-09-19T00:04:09.829Z,39.26
2017-09-19T00:06:37.486Z,39.33
2017-09-19T00:09:05.232Z,39.34
2017-09-19T00:11:33.025Z,39.34
2017-09-19T00:14:01.978Z,39.40
2017-09-19T00:16:30.170Z,39.37
2017-09-19T00:18:58.019Z,39.38
2017-09-19T00:21:25.915Z,39.43
2017-09-19T00:23:53.527Z,39.46
2017-09-19T00:26:21.095Z,39.49
2017-09-19T00:28:49.629Z,39.48
2017-09-19T00:31:18.277Z,39.57
2017-09-19T00:33:46.614Z,39.55
2017-09-19T00:36:15.215Z,39.58
2017-09-19T00:38:43.014Z,39.57
2017-09-19T00:41:10.650Z,39.61
2017-09-19T00:43:38.401Z,39.73
2017-09-19T00:46:06.193Z,39.73
2017-09-19T00:48:34.182Z,39.83
2017-09-19T00:51:01.737Z,39.82
2017-09-19T00:53:32.850Z,39.80
2017-09-19T00:56:00.418Z,39.77
2017-09-19T00:58:28.080Z,39.94
2017-09-19T01:00:55.853Z,39.98
2017-09-19T01:03:23.464Z,39.87
2017-09-19T01:05:51.205Z,39.80
2017-09-19T01:08:18.819Z,39.83
2017-09-19T01:10:47.343Z,39.97
2017-09-19T01:13:15.055Z,40.10
2017-09-19T01:15:42.743Z,40.09
2017-09-19T01:18:10.336Z,40.27
2017-09-19T01:24:09.254Z,40.39
2017-09-19T01:26:37.350Z,40.43
2017-09-19T01:29:04.913Z,40.47
2017-09-19T01:36:39.209Z,40.67
2017-09-19T01:39:06.751Z,40.53
2017-09-19T01:41:34.280Z,40.55
2017-09-19T01:44:01.842Z,40.58
2017-09-19T01:46:29.363Z,40.74
2017-09-19T01:48:56.959Z,40.78
2017-09-19T01:51:24.478Z,40.83
2017-09-19T01:53:52.014Z,40.87
2017-09-19T01:56:19.676Z,41.04
2017-09-19T01:58:47.256Z,40.93
2017-09-19T02:01:14.926Z,41.01
2017-09-19T02:03:42.479Z,41.00
2017-09-19T02:06:10.062Z,41.06
2017-09-19T02:08:37.704Z,41.13
2017-09-19T02:11:05.355Z,41.17
2017-09-19T02:13:32.903Z,41.20
2017-09-19T02:16:03.909Z,41.29
2017-09-19T02:18:31.623Z,41.35
2017-09-19T02:36:39.129Z,41.58
2017-09-19T02:39:06.666Z,41.64
2017-09-19T02:41:34.236Z,41.66
2017-09-19T02:44:01.801Z,41.71
2017-09-19T02:46:29.334Z,41.84
2017-09-19T02:48:57.284Z,41.77
2017-09-19T02:56:33.703Z,41.85
2017-09-19T03:09:17.628Z,41.98
2017-09-19T03:11:45.214Z,42.10
2017-09-19T03:14:12.856Z,42.11
2017-09-19T03:16:40.414Z,42.17
2017-09-19T03:19:07.991Z,42.16
2017-09-19T03:22:16.521Z,42.26
2017-09-19T03:28:14.680Z,42.29
2017-09-19T03:30:42.660Z,42.38
2017-09-19T03:33:11.780Z,42.36
2017-09-19T03:35:39.544Z,42.38
2017-09-19T03:38:07.124Z,42.38
2017-09-19T03:40:34.731Z,42.46
2017-09-19T03:43:02.310Z,42.56
2017-09-19T03:48:09.779Z,42.47
2017-09-19T03:50:38.199Z,42.54
2017-09-19T03:53:05.978Z,42.57
2017-09-19T03:55:33.693Z,42.84
2017-09-19T03:58:01.351Z,42.56
2017-09-19T04:00:29.009Z,42.48
2017-09-19T04:02:57.287Z,42.51
2017-09-19T04:05:30.285Z,42.85
2017-09-19T04:07:58.056Z,42.45
2017-09-19T04:10:25.655Z,42.36
2017-09-19T04:12:53.293Z,42.39
2017-09-19T04:15:22.018Z,42.46
2017-09-19T04:17:49.878Z,42.43
2017-09-19T04:20:17.416Z,42.43
2017-09-19T04:22:45.771Z,42.33
2017-09-19T04:25:13.413Z,42.41
2017-09-19T04:27:40.991Z,42.45
2017-09-19T04:30:08.511Z,42.36
2017-09-19T04:32:36.194Z,42.39
2017-09-19T04:35:04.155Z,42.38
2017-09-19T04:37:31.959Z,42.59
2017-09-19T04:40:10.153Z,42.56
2017-09-19T04:42:38.827Z,42.83
2017-09-19T04:45:06.726Z,43.04
2017-09-19T04:47:34.921Z,42.79
2017-09-19T04:50:02.740Z,43.09
2017-09-19T04:53:06.223Z,43.13
2017-09-19T04:55:33.859Z,43.09
2017-09-19T04:58:01.416Z,43.11
2017-09-19T05:00:29.003Z,43.21
2017-09-19T05:02:56.577Z,43.04
2017-09-19T05:05:24.295Z,43.10
2017-09-19T05:10:27.796Z,43.18
2017-09-19T05:13:09.748Z,43.09
2017-09-19T05:15:38.335Z,43.34
2017-09-19T05:18:12.906Z,43.10
2017-09-19T05:20:40.530Z,43.17
2017-09-19T05:23:08.958Z,43.10
2017-09-19T05:25:55.024Z,43.24
2017-09-19T05:28:36.873Z,43.10
2017-09-19T05:31:04.606Z,42.89
2017-09-19T05:33:32.229Z,43.06
2017-09-19T05:38:36.275Z,42.26
2017-09-19T05:41:06.660Z,42.30
2017-09-19T05:43:34.716Z,42.37
2017-09-19T05:46:18.261Z,42.26
2017-09-19T05:59:35.428Z,42.26
2017-09-19T06:02:05.521Z,42.28
2017-09-19T06:10:39.200Z,41.96
2017-09-19T06:13:07.503Z,41.92
2017-09-19T06:15:35.418Z,41.97
2017-09-19T06:20:35.287Z,41.64
2017-09-19T06:23:03.572Z,41.33
2017-09-19T06:31:55.651Z,41.33
2017-09-19T06:37:15.601Z,41.59
2017-09-19T12:59:14.336Z,34.21
2017-09-19T13:01:44.136Z,34.56
2017-09-19T13:11:12.407Z,33.92
2017-09-19T16:33:27.114Z,26.77
2017-09-19T16:57:07.099Z,26.72
2017-09-19T20:10:05.321Z,32.26
2017-09-19T20:12:32.998Z,32.36
2017-09-19T20:22:40.375Z,32.65
2017-09-19T20:25:23.919Z,32.77
2017-09-19T20:27:51.574Z,32.78
2017-09-19T20:33:50.226Z,32.88
2017-09-19T20:43:59.124Z,33.21
2017-09-19T20:46:26.838Z,33.10
2017-09-19T20:56:33.485Z,33.27
2017-09-19T20:59:01.066Z,33.31
2017-09-19T21:01:34.897Z,33.50
2017-09-19T21:04:06.995Z,33.39
2017-09-19T21:27:05.463Z,34.12
2017-09-19T21:32:04.936Z,34.10
2017-09-19T21:34:32.520Z,34.12
2017-09-19T21:37:00.256Z,34.03
2017-09-19T21:39:27.998Z,33.94
2017-09-19T21:52:15.271Z,33.05
2017-09-19T21:54:42.854Z,33.23
2017-09-19T21:59:43.184Z,33.36
2017-09-19T22:12:53.721Z,33.70
2017-09-19T22:15:22.908Z,33.67
2017-09-19T22:25:34.809Z,33.91
2017-09-19T22:28:02.441Z,34.07
2017-09-19T22:30:30.006Z,34.11
2017-09-19T22:35:29.960Z,34.30
2017-09-19T22:37:57.597Z,34.29
2017-09-19T22:40:25.181Z,34.34
2017-09-19T22:42:52.808Z,34.32
2017-09-19T22:50:25.840Z,34.47
2017-09-19T22:52:53.429Z,34.57
2017-09-19T22:55:21.167Z,34.57
2017-09-19T23:08:05.264Z,34.71
2017-09-19T23:18:13.306Z,34.74
2017-09-19T23:23:19.293Z,34.79
2017-09-19T23:30:52.735Z,34.86
2017-09-19T23:33:20.306Z,34.80
2017-09-19T23:38:20.443Z,34.99
2017-09-19T23:40:48.065Z,34.84
2017-09-19T23:43:16.214Z,34.92
2017-09-19T23:45:46.167Z,34.92
2017-09-19T23:48:14.011Z,34.90
2017-09-19T23:53:16.398Z,35.12
2017-09-19T23:58:25.599Z,35.00
